sensor_id;sensor_type;location;lat;lon;timestamp;P1;durP1;ratioP1;P2;durP2;ratioP2
27402;SDS011;14862;49.494;8.530;2023-05-07T00:01:28;3.80;;;2.53;;
27402;SDS011;14862;49.494;8.530;2023-05-07T00:03:53;2.95;;;2.22;;
27402;SDS011;14862;49.494;8.530;2023-05-07T00:06:19;2.70;;;2.20;;
27402;SDS011;14862;49.494;8.530;2023-05-07T00:08:44;3.97;;;2.30;;
27402;SDS011;14862;49.494;8.530;2023-05-07T00:11:09;3.70;;;2.30;;
27402;SDS011;14862;49.494;8.530;2023-05-07T00:13:35;4.05;;;3.20;;
27402;SDS011;14862;49.494;8.530;2023-05-07T00:16:03;6.35;;;4.38;;
27402;SDS011;14862;49.494;8.530;2023-05-07T00:18:28;4.07;;;3.58;;
27402;SDS011;14862;49.494;8.530;2023-05-07T00:20:53;5.03;;;3.08;;
27402;SDS011;14862;49.494;8.530;2023-05-07T00:23:18;5.78;;;2.80;;
27402;SDS011;14862;49.494;8.530;2023-05-07T00:25:44;9.25;;;3.20;;
27402;SDS011;14862;49.494;8.530;2023-05-07T00:28:09;6.27;;;2.77;;
27402;SDS011;14862;49.494;8.530;2023-05-07T00:30:34;3.70;;;2.80;;
27402;SDS011;14862;49.494;8.530;2023-05-07T00:32:59;2.77;;;2.53;;
27402;SDS011;14862;49.494;8.530;2023-05-07T00:35:25;4.33;;;2.90;;
27402;SDS011;14862;49.494;8.530;2023-05-07T00:37:50;3.03;;;2.70;;
27402;SDS011;14862;49.494;8.530;2023-05-07T00:40:15;6.05;;;3.15;;
27402;SDS011;14862;49.494;8.530;2023-05-07T00:42:40;6.53;;;3.38;;
27402;SDS011;14862;49.494;8.530;2023-05-07T00:45:06;5.43;;;3.47;;
27402;SDS011;14862;49.494;8.530;2023-05-07T00:47:32;4.13;;;2.80;;
27402;SDS011;14862;49.494;8.530;2023-05-07T00:49:58;6.95;;;3.05;;
27402;SDS011;14862;49.494;8.530;2023-05-07T00:52:23;3.45;;;2.97;;
27402;SDS011;14862;49.494;8.530;2023-05-07T00:54:50;3.95;;;2.90;;
27402;SDS011;14862;49.494;8.530;2023-05-07T00:57:16;4.78;;;2.83;;
27402;SDS011;14862;49.494;8.530;2023-05-07T00:59:41;6.65;;;3.50;;
27402;SDS011;14862;49.494;8.530;2023-05-07T01:02:06;4.18;;;3.22;;
27402;SDS011;14862;49.494;8.530;2023-05-07T01:04:31;4.55;;;2.88;;
27402;SDS011;14862;49.494;8.530;2023-05-07T01:06:57;3.33;;;2.90;;
27402;SDS011;14862;49.494;8.530;2023-05-07T01:09:23;7.55;;;2.72;;
27402;SDS011;14862;49.494;8.530;2023-05-07T01:11:49;5.20;;;3.13;;
27402;SDS011;14862;49.494;8.530;2023-05-07T01:14:14;7.80;;;3.35;;
27402;SDS011;14862;49.494;8.530;2023-05-07T01:16:40;5.18;;;2.85;;
27402;SDS011;14862;49.494;8.530;2023-05-07T01:19:07;4.32;;;3.10;;
27402;SDS011;14862;49.494;8.530;2023-05-07T01:21:33;3.55;;;3.13;;
27402;SDS011;14862;49.494;8.530;2023-05-07T01:23:59;4.68;;;3.40;;
27402;SDS011;14862;49.494;8.530;2023-05-07T01:26:25;4.07;;;3.03;;
27402;SDS011;14862;49.494;8.530;2023-05-07T01:28:50;4.78;;;3.08;;
27402;SDS011;14862;49.494;8.530;2023-05-07T01:31:15;3.42;;;2.53;;
27402;SDS011;14862;49.494;8.530;2023-05-07T01:33:41;3.83;;;2.90;;
27402;SDS011;14862;49.494;8.530;2023-05-07T01:36:09;5.47;;;3.00;;
27402;SDS011;14862;49.494;8.530;2023-05-07T01:38:36;5.55;;;3.08;;
27402;SDS011;14862;49.494;8.530;2023-05-07T01:41:01;3.40;;;2.85;;
27402;SDS011;14862;49.494;8.530;2023-05-07T01:43:27;4.50;;;2.47;;
27402;SDS011;14862;49.494;8.530;2023-05-07T01:45:53;3.45;;;2.63;;
27402;SDS011;14862;49.494;8.530;2023-05-07T01:48:18;3.15;;;2.45;;
27402;SDS011;14862;49.494;8.530;2023-05-07T01:50:44;12.60;;;5.38;;
27402;SDS011;14862;49.494;8.530;2023-05-07T01:53:09;14.93;;;8.23;;
27402;SDS011;14862;49.494;8.530;2023-05-07T01:55:34;6.95;;;4.40;;
27402;SDS011;14862;49.494;8.530;2023-05-07T01:58:01;6.63;;;4.25;;
27402;SDS011;14862;49.494;8.530;2023-05-07T02:00:27;5.32;;;3.22;;
27402;SDS011;14862;49.494;8.530;2023-05-07T02:02:52;4.77;;;3.20;;
27402;SDS011;14862;49.494;8.530;2023-05-07T02:05:18;3.17;;;2.65;;
27402;SDS011;14862;49.494;8.530;2023-05-07T02:07:43;3.55;;;2.75;;
27402;SDS011;14862;49.494;8.530;2023-05-07T02:10:08;5.43;;;2.90;;
27402;SDS011;14862;49.494;8.530;2023-05-07T02:12:33;6.45;;;3.13;;
27402;SDS011;14862;49.494;8.530;2023-05-07T02:14:59;4.90;;;2.92;;
27402;SDS011;14862;49.494;8.530;2023-05-07T02:17:24;5.50;;;3.03;;
27402;SDS011;14862;49.494;8.530;2023-05-07T02:19:50;4.50;;;2.92;;
27402;SDS011;14862;49.494;8.530;2023-05-07T02:22:15;4.47;;;3.22;;
27402;SDS011;14862;49.494;8.530;2023-05-07T02:24:40;4.33;;;3.20;;
27402;SDS011;14862;49.494;8.530;2023-05-07T02:27:06;5.13;;;3.17;;
27402;SDS011;14862;49.494;8.530;2023-05-07T02:29:31;5.90;;;2.83;;
27402;SDS011;14862;49.494;8.530;2023-05-07T02:31:56;6.33;;;3.53;;
27402;SDS011;14862;49.494;8.530;2023-05-07T02:34:21;4.90;;;3.15;;
27402;SDS011;14862;49.494;8.530;2023-05-07T02:36:47;4.07;;;3.28;;
27402;SDS011;14862;49.494;8.530;2023-05-07T02:39:12;4.80;;;3.63;;
27402;SDS011;14862;49.494;8.530;2023-05-07T02:41:37;5.53;;;3.42;;
27402;SDS011;14862;49.494;8.530;2023-05-07T02:44:03;4.15;;;3.20;;
27402;SDS011;14862;49.494;8.530;2023-05-07T02:46:28;5.25;;;3.47;;
27402;SDS011;14862;49.494;8.530;2023-05-07T02:48:53;3.83;;;3.42;;
27402;SDS011;14862;49.494;8.530;2023-05-07T02:51:19;5.07;;;3.13;;
27402;SDS011;14862;49.494;8.530;2023-05-07T02:53:45;4.72;;;3.20;;
27402;SDS011;14862;49.494;8.530;2023-05-07T02:56:11;3.55;;;2.72;;
27402;SDS011;14862;49.494;8.530;2023-05-07T02:58:36;4.35;;;3.50;;
27402;SDS011;14862;49.494;8.530;2023-05-07T03:01:01;3.70;;;2.87;;
27402;SDS011;14862;49.494;8.530;2023-05-07T03:03:26;5.68;;;3.17;;
27402;SDS011;14862;49.494;8.530;2023-05-07T03:05:52;4.47;;;3.53;;
27402;SDS011;14862;49.494;8.530;2023-05-07T03:08:17;5.53;;;3.17;;
27402;SDS011;14862;49.494;8.530;2023-05-07T03:10:42;4.97;;;3.05;;
27402;SDS011;14862;49.494;8.530;2023-05-07T03:13:07;5.87;;;3.40;;
27402;SDS011;14862;49.494;8.530;2023-05-07T03:15:33;5.43;;;3.58;;
27402;SDS011;14862;49.494;8.530;2023-05-07T03:17:58;4.70;;;3.17;;
27402;SDS011;14862;49.494;8.530;2023-05-07T03:20:23;4.17;;;3.10;;
27402;SDS011;14862;49.494;8.530;2023-05-07T03:22:48;4.80;;;3.20;;
27402;SDS011;14862;49.494;8.530;2023-05-07T03:25:13;6.00;;;3.28;;
27402;SDS011;14862;49.494;8.530;2023-05-07T03:27:41;4.00;;;3.33;;
27402;SDS011;14862;49.494;8.530;2023-05-07T03:30:07;4.57;;;3.65;;
27402;SDS011;14862;49.494;8.530;2023-05-07T03:32:33;6.47;;;3.13;;
27402;SDS011;14862;49.494;8.530;2023-05-07T03:34:58;5.83;;;3.70;;
27402;SDS011;14862;49.494;8.530;2023-05-07T03:37:24;4.78;;;3.13;;
27402;SDS011;14862;49.494;8.530;2023-05-07T03:39:49;4.20;;;3.30;;
27402;SDS011;14862;49.494;8.530;2023-05-07T03:42:14;6.38;;;3.25;;
27402;SDS011;14862;49.494;8.530;2023-05-07T03:44:40;3.70;;;3.10;;
27402;SDS011;14862;49.494;8.530;2023-05-07T03:47:05;4.60;;;3.47;;
27402;SDS011;14862;49.494;8.530;2023-05-07T03:49:30;9.20;;;4.27;;
27402;SDS011;14862;49.494;8.530;2023-05-07T03:51:55;5.10;;;2.97;;
27402;SDS011;14862;49.494;8.530;2023-05-07T03:54:21;6.00;;;3.50;;
27402;SDS011;14862;49.494;8.530;2023-05-07T03:56:46;4.17;;;3.40;;
27402;SDS011;14862;49.494;8.530;2023-05-07T03:59:12;4.13;;;3.70;;
27402;SDS011;14862;49.494;8.530;2023-05-07T04:01:37;6.43;;;3.80;;
27402;SDS011;14862;49.494;8.530;2023-05-07T04:04:03;7.50;;;3.77;;
27402;SDS011;14862;49.494;8.530;2023-05-07T04:06:29;4.00;;;3.60;;
27402;SDS011;14862;49.494;8.530;2023-05-07T04:08:54;4.10;;;3.42;;
27402;SDS011;14862;49.494;8.530;2023-05-07T04:11:19;4.50;;;3.40;;
27402;SDS011;14862;49.494;8.530;2023-05-07T04:13:45;6.88;;;3.90;;
27402;SDS011;14862;49.494;8.530;2023-05-07T04:16:10;4.65;;;3.47;;
27402;SDS011;14862;49.494;8.530;2023-05-07T04:18:35;3.70;;;3.23;;
27402;SDS011;14862;49.494;8.530;2023-05-07T04:21:01;4.60;;;3.15;;
27402;SDS011;14862;49.494;8.530;2023-05-07T04:23:26;6.50;;;3.45;;
27402;SDS011;14862;49.494;8.530;2023-05-07T04:25:51;4.53;;;3.00;;
27402;SDS011;14862;49.494;8.530;2023-05-07T04:28:16;3.55;;;3.25;;
27402;SDS011;14862;49.494;8.530;2023-05-07T04:30:42;4.00;;;3.63;;
27402;SDS011;14862;49.494;8.530;2023-05-07T04:33:07;4.60;;;3.00;;
27402;SDS011;14862;49.494;8.530;2023-05-07T04:35:32;4.20;;;3.42;;
27402;SDS011;14862;49.494;8.530;2023-05-07T04:37:57;7.18;;;4.63;;
27402;SDS011;14862;49.494;8.530;2023-05-07T04:40:23;5.30;;;3.58;;
27402;SDS011;14862;49.494;8.530;2023-05-07T04:42:48;6.00;;;3.42;;
27402;SDS011;14862;49.494;8.530;2023-05-07T04:45:13;7.68;;;3.47;;
27402;SDS011;14862;49.494;8.530;2023-05-07T04:47:39;4.32;;;3.30;;
27402;SDS011;14862;49.494;8.530;2023-05-07T04:50:05;3.35;;;3.00;;
27402;SDS011;14862;49.494;8.530;2023-05-07T04:52:31;3.33;;;2.92;;
27402;SDS011;14862;49.494;8.530;2023-05-07T04:54:56;4.25;;;2.85;;
27402;SDS011;14862;49.494;8.530;2023-05-07T04:57:21;4.68;;;3.00;;
27402;SDS011;14862;49.494;8.530;2023-05-07T04:59:46;6.05;;;2.95;;
27402;SDS011;14862;49.494;8.530;2023-05-07T05:02:12;4.27;;;2.73;;
27402;SDS011;14862;49.494;8.530;2023-05-07T05:04:37;5.72;;;3.38;;
27402;SDS011;14862;49.494;8.530;2023-05-07T05:07:02;8.37;;;2.93;;
27402;SDS011;14862;49.494;8.530;2023-05-07T05:09:29;5.07;;;3.42;;
27402;SDS011;14862;49.494;8.530;2023-05-07T05:11:54;4.40;;;3.00;;
27402;SDS011;14862;49.494;8.530;2023-05-07T05:14:19;4.35;;;2.83;;
27402;SDS011;14862;49.494;8.530;2023-05-07T05:16:45;6.53;;;3.08;;
27402;SDS011;14862;49.494;8.530;2023-05-07T05:19:10;3.63;;;2.88;;
27402;SDS011;14862;49.494;8.530;2023-05-07T05:21:35;4.13;;;3.20;;
27402;SDS011;14862;49.494;8.530;2023-05-07T05:24:00;3.92;;;3.10;;
27402;SDS011;14862;49.494;8.530;2023-05-07T05:26:26;7.45;;;3.40;;
27402;SDS011;14862;49.494;8.530;2023-05-07T05:28:51;4.63;;;3.22;;
27402;SDS011;14862;49.494;8.530;2023-05-07T05:31:16;3.55;;;2.97;;
27402;SDS011;14862;49.494;8.530;2023-05-07T05:33:41;3.53;;;2.90;;
27402;SDS011;14862;49.494;8.530;2023-05-07T05:36:08;6.10;;;3.47;;
27402;SDS011;14862;49.494;8.530;2023-05-07T05:38:34;6.88;;;2.63;;
27402;SDS011;14862;49.494;8.530;2023-05-07T05:40:59;4.30;;;2.90;;
27402;SDS011;14862;49.494;8.530;2023-05-07T05:43:24;7.53;;;3.22;;
27402;SDS011;14862;49.494;8.530;2023-05-07T05:45:50;4.83;;;3.27;;
27402;SDS011;14862;49.494;8.530;2023-05-07T05:48:15;4.00;;;3.60;;
27402;SDS011;14862;49.494;8.530;2023-05-07T05:50:41;5.38;;;3.20;;
27402;SDS011;14862;49.494;8.530;2023-05-07T05:53:06;7.32;;;3.30;;
27402;SDS011;14862;49.494;8.530;2023-05-07T05:55:32;3.60;;;2.80;;
27402;SDS011;14862;49.494;8.530;2023-05-07T05:57:57;3.22;;;2.85;;
27402;SDS011;14862;49.494;8.530;2023-05-07T06:00:23;4.95;;;3.05;;
27402;SDS011;14862;49.494;8.530;2023-05-07T06:02:48;4.13;;;2.95;;
27402;SDS011;14862;49.494;8.530;2023-05-07T06:05:13;5.45;;;2.70;;
27402;SDS011;14862;49.494;8.530;2023-05-07T06:07:39;5.45;;;2.67;;
27402;SDS011;14862;49.494;8.530;2023-05-07T06:10:04;2.53;;;2.20;;
27402;SDS011;14862;49.494;8.530;2023-05-07T06:12:29;2.65;;;2.42;;
27402;SDS011;14862;49.494;8.530;2023-05-07T06:14:55;4.75;;;2.85;;
27402;SDS011;14862;49.494;8.530;2023-05-07T06:17:20;5.88;;;2.85;;
27402;SDS011;14862;49.494;8.530;2023-05-07T06:19:45;3.73;;;2.13;;
27402;SDS011;14862;49.494;8.530;2023-05-07T06:22:10;5.77;;;2.73;;
27402;SDS011;14862;49.494;8.530;2023-05-07T06:24:36;5.27;;;2.53;;
27402;SDS011;14862;49.494;8.530;2023-05-07T06:27:01;7.18;;;2.90;;
27402;SDS011;14862;49.494;8.530;2023-05-07T06:29:26;2.88;;;2.35;;
27402;SDS011;14862;49.494;8.530;2023-05-07T06:31:54;4.05;;;2.40;;
27402;SDS011;14862;49.494;8.530;2023-05-07T06:34:20;2.88;;;2.35;;
27402;SDS011;14862;49.494;8.530;2023-05-07T06:36:45;4.47;;;2.83;;
27402;SDS011;14862;49.494;8.530;2023-05-07T06:39:10;4.03;;;2.30;;
27402;SDS011;14862;49.494;8.530;2023-05-07T06:41:35;4.10;;;2.35;;
27402;SDS011;14862;49.494;8.530;2023-05-07T06:44:03;5.13;;;2.55;;
27402;SDS011;14862;49.494;8.530;2023-05-07T06:46:29;4.15;;;2.10;;
27402;SDS011;14862;49.494;8.530;2023-05-07T06:48:55;4.50;;;2.80;;
27402;SDS011;14862;49.494;8.530;2023-05-07T06:51:21;4.60;;;2.70;;
27402;SDS011;14862;49.494;8.530;2023-05-07T06:53:46;4.07;;;2.13;;
27402;SDS011;14862;49.494;8.530;2023-05-07T06:56:12;2.63;;;2.37;;
27402;SDS011;14862;49.494;8.530;2023-05-07T06:58:37;5.33;;;2.40;;
27402;SDS011;14862;49.494;8.530;2023-05-07T07:01:02;3.92;;;2.38;;
27402;SDS011;14862;49.494;8.530;2023-05-07T07:03:28;2.70;;;2.10;;
27402;SDS011;14862;49.494;8.530;2023-05-07T07:05:53;2.75;;;2.10;;
27402;SDS011;14862;49.494;8.530;2023-05-07T07:08:18;7.18;;;2.30;;
27402;SDS011;14862;49.494;8.530;2023-05-07T07:10:46;2.55;;;1.90;;
27402;SDS011;14862;49.494;8.530;2023-05-07T07:13:11;7.13;;;2.53;;
27402;SDS011;14862;49.494;8.530;2023-05-07T07:15:36;3.60;;;1.92;;
27402;SDS011;14862;49.494;8.530;2023-05-07T07:18:01;1.90;;;1.80;;
27402;SDS011;14862;49.494;8.530;2023-05-07T07:20:27;3.55;;;1.73;;
27402;SDS011;14862;49.494;8.530;2023-05-07T07:22:52;1.80;;;1.50;;
27402;SDS011;14862;49.494;8.530;2023-05-07T07:25:17;3.83;;;1.77;;
27402;SDS011;14862;49.494;8.530;2023-05-07T07:27:42;2.37;;;1.40;;
27402;SDS011;14862;49.494;8.530;2023-05-07T07:30:08;3.20;;;1.50;;
27402;SDS011;14862;49.494;8.530;2023-05-07T07:32:33;2.13;;;1.65;;
27402;SDS011;14862;49.494;8.530;2023-05-07T07:34:59;1.70;;;1.30;;
27402;SDS011;14862;49.494;8.530;2023-05-07T07:37:24;2.97;;;1.60;;
27402;SDS011;14862;49.494;8.530;2023-05-07T07:39:50;3.13;;;1.60;;
27402;SDS011;14862;49.494;8.530;2023-05-07T07:42:16;2.17;;;1.53;;
27402;SDS011;14862;49.494;8.530;2023-05-07T07:44:43;1.73;;;1.60;;
27402;SDS011;14862;49.494;8.530;2023-05-07T07:47:08;1.92;;;1.52;;
27402;SDS011;14862;49.494;8.530;2023-05-07T07:49:33;3.38;;;1.60;;
27402;SDS011;14862;49.494;8.530;2023-05-07T07:51:59;2.75;;;1.65;;
27402;SDS011;14862;49.494;8.530;2023-05-07T07:54:25;2.85;;;1.80;;
27402;SDS011;14862;49.494;8.530;2023-05-07T07:56:50;8.90;;;1.83;;
27402;SDS011;14862;49.494;8.530;2023-05-07T07:59:16;2.80;;;1.87;;
27402;SDS011;14862;49.494;8.530;2023-05-07T08:01:43;3.67;;;1.90;;
27402;SDS011;14862;49.494;8.530;2023-05-07T08:04:09;1.73;;;1.63;;
27402;SDS011;14862;49.494;8.530;2023-05-07T08:06:34;2.63;;;1.83;;
27402;SDS011;14862;49.494;8.530;2023-05-07T08:08:59;3.42;;;1.90;;
27402;SDS011;14862;49.494;8.530;2023-05-07T08:11:24;3.67;;;2.10;;
27402;SDS011;14862;49.494;8.530;2023-05-07T08:13:50;3.08;;;2.20;;
27402;SDS011;14862;49.494;8.530;2023-05-07T08:16:15;3.10;;;2.03;;
27402;SDS011;14862;49.494;8.530;2023-05-07T08:18:41;2.88;;;2.28;;
27402;SDS011;14862;49.494;8.530;2023-05-07T08:21:06;4.00;;;2.10;;
27402;SDS011;14862;49.494;8.530;2023-05-07T08:23:31;4.10;;;2.30;;
27402;SDS011;14862;49.494;8.530;2023-05-07T08:25:56;3.30;;;1.98;;
27402;SDS011;14862;49.494;8.530;2023-05-07T08:28:22;2.13;;;1.92;;
27402;SDS011;14862;49.494;8.530;2023-05-07T08:30:49;2.95;;;2.25;;
27402;SDS011;14862;49.494;8.530;2023-05-07T08:33:14;4.43;;;2.38;;
27402;SDS011;14862;49.494;8.530;2023-05-07T08:35:46;4.00;;;2.35;;
27402;SDS011;14862;49.494;8.530;2023-05-07T08:38:12;2.85;;;2.10;;
27402;SDS011;14862;49.494;8.530;2023-05-07T08:40:38;6.18;;;2.20;;
27402;SDS011;14862;49.494;8.530;2023-05-07T08:43:05;4.10;;;2.20;;
27402;SDS011;14862;49.494;8.530;2023-05-07T08:45:30;3.58;;;1.42;;
27402;SDS011;14862;49.494;8.530;2023-05-07T08:48:05;5.35;;;1.83;;
27402;SDS011;14862;49.494;8.530;2023-05-07T08:50:31;2.05;;;1.85;;
27402;SDS011;14862;49.494;8.530;2023-05-07T08:53:00;3.63;;;1.70;;
27402;SDS011;14862;49.494;8.530;2023-05-07T08:55:25;2.47;;;2.00;;
27402;SDS011;14862;49.494;8.530;2023-05-07T08:57:50;2.13;;;1.75;;
27402;SDS011;14862;49.494;8.530;2023-05-07T09:00:17;3.03;;;1.92;;
27402;SDS011;14862;49.494;8.530;2023-05-07T09:02:43;1.90;;;1.70;;
27402;SDS011;14862;49.494;8.530;2023-05-07T09:05:08;3.10;;;1.58;;
27402;SDS011;14862;49.494;8.530;2023-05-07T09:07:33;1.80;;;1.60;;
27402;SDS011;14862;49.494;8.530;2023-05-07T09:10:00;2.30;;;1.83;;
27402;SDS011;14862;49.494;8.530;2023-05-07T09:12:26;2.63;;;1.73;;
27402;SDS011;14862;49.494;8.530;2023-05-07T09:14:51;2.45;;;1.85;;
27402;SDS011;14862;49.494;8.530;2023-05-07T09:17:16;3.67;;;1.60;;
27402;SDS011;14862;49.494;8.530;2023-05-07T09:19:42;2.72;;;1.75;;
27402;SDS011;14862;49.494;8.530;2023-05-07T09:22:08;2.08;;;1.77;;
27402;SDS011;14862;49.494;8.530;2023-05-07T09:24:33;3.60;;;1.50;;
27402;SDS011;14862;49.494;8.530;2023-05-07T09:27:06;2.95;;;1.50;;
27402;SDS011;14862;49.494;8.530;2023-05-07T09:29:32;9.15;;;1.60;;
27402;SDS011;14862;49.494;8.530;2023-05-07T09:32:03;3.97;;;1.63;;
27402;SDS011;14862;49.494;8.530;2023-05-07T09:34:29;3.00;;;1.45;;
27402;SDS011;14862;49.494;8.530;2023-05-07T09:36:55;3.42;;;1.75;;
27402;SDS011;14862;49.494;8.530;2023-05-07T09:39:21;1.90;;;1.60;;
27402;SDS011;14862;49.494;8.530;2023-05-07T09:41:47;1.85;;;1.52;;
27402;SDS011;14862;49.494;8.530;2023-05-07T09:44:13;2.28;;;1.50;;
27402;SDS011;14862;49.494;8.530;2023-05-07T09:46:39;1.33;;;1.23;;
27402;SDS011;14862;49.494;8.530;2023-05-07T09:49:06;1.73;;;1.50;;
27402;SDS011;14862;49.494;8.530;2023-05-07T09:51:38;2.47;;;1.58;;
27402;SDS011;14862;49.494;8.530;2023-05-07T09:54:04;1.63;;;1.45;;
27402;SDS011;14862;49.494;8.530;2023-05-07T09:56:30;1.85;;;1.63;;
27402;SDS011;14862;49.494;8.530;2023-05-07T09:58:57;2.67;;;1.60;;
27402;SDS011;14862;49.494;8.530;2023-05-07T10:01:24;1.73;;;1.50;;
27402;SDS011;14862;49.494;8.530;2023-05-07T10:03:50;2.78;;;1.58;;
27402;SDS011;14862;49.494;8.530;2023-05-07T10:06:16;2.90;;;1.70;;
27402;SDS011;14862;49.494;8.530;2023-05-07T10:08:42;4.00;;;2.08;;
27402;SDS011;14862;49.494;8.530;2023-05-07T10:11:07;2.88;;;1.77;;
27402;SDS011;14862;49.494;8.530;2023-05-07T10:13:34;4.22;;;1.73;;
27402;SDS011;14862;49.494;8.530;2023-05-07T10:16:01;2.25;;;1.63;;
27402;SDS011;14862;49.494;8.530;2023-05-07T10:18:26;4.60;;;1.70;;
27402;SDS011;14862;49.494;8.530;2023-05-07T10:20:54;2.28;;;1.55;;
27402;SDS011;14862;49.494;8.530;2023-05-07T10:23:23;4.05;;;1.80;;
27402;SDS011;14862;49.494;8.530;2023-05-07T10:25:48;1.73;;;1.48;;
27402;SDS011;14862;49.494;8.530;2023-05-07T10:28:14;2.30;;;1.52;;
27402;SDS011;14862;49.494;8.530;2023-05-07T10:33:09;2.67;;;1.58;;
27402;SDS011;14862;49.494;8.530;2023-05-07T10:35:42;2.00;;;1.42;;
27402;SDS011;14862;49.494;8.530;2023-05-07T10:38:08;3.17;;;1.75;;
27402;SDS011;14862;49.494;8.530;2023-05-07T10:40:33;3.40;;;1.70;;
27402;SDS011;14862;49.494;8.530;2023-05-07T10:42:59;2.03;;;1.73;;
27402;SDS011;14862;49.494;8.530;2023-05-07T10:45:25;3.60;;;1.70;;
27402;SDS011;14862;49.494;8.530;2023-05-07T10:50:45;3.60;;;1.50;;
27402;SDS011;14862;49.494;8.530;2023-05-07T10:55:46;1.70;;;1.60;;
27402;SDS011;14862;49.494;8.530;2023-05-07T11:00:46;2.03;;;1.83;;
27402;SDS011;14862;49.494;8.530;2023-05-07T11:03:11;2.90;;;1.73;;
27402;SDS011;14862;49.494;8.530;2023-05-07T11:05:37;2.45;;;1.77;;
27402;SDS011;14862;49.494;8.530;2023-05-07T11:08:03;2.25;;;1.40;;
27402;SDS011;14862;49.494;8.530;2023-05-07T11:13:12;3.08;;;1.67;;
27402;SDS011;14862;49.494;8.530;2023-05-07T11:15:38;2.17;;;1.50;;
27402;SDS011;14862;49.494;8.530;2023-05-07T11:18:04;2.00;;;1.80;;
27402;SDS011;14862;49.494;8.530;2023-05-07T11:20:48;2.58;;;1.80;;
27402;SDS011;14862;49.494;8.530;2023-05-07T11:26:08;2.28;;;1.65;;
27402;SDS011;14862;49.494;8.530;2023-05-07T11:28:37;3.20;;;1.75;;
27402;SDS011;14862;49.494;8.530;2023-05-07T11:31:02;2.17;;;1.70;;
27402;SDS011;14862;49.494;8.530;2023-05-07T11:33:28;2.78;;;1.60;;
27402;SDS011;14862;49.494;8.530;2023-05-07T11:35:53;3.95;;;1.60;;
27402;SDS011;14862;49.494;8.530;2023-05-07T11:38:19;1.60;;;1.50;;
27402;SDS011;14862;49.494;8.530;2023-05-07T11:43:16;3.08;;;1.63;;
27402;SDS011;14862;49.494;8.530;2023-05-07T11:45:41;1.70;;;1.55;;
27402;SDS011;14862;49.494;8.530;2023-05-07T11:48:06;3.27;;;1.70;;
27402;SDS011;14862;49.494;8.530;2023-05-07T11:50:32;1.90;;;1.70;;
27402;SDS011;14862;49.494;8.530;2023-05-07T11:52:57;4.80;;;1.70;;
27402;SDS011;14862;49.494;8.530;2023-05-07T11:55:23;3.67;;;1.67;;
27402;SDS011;14862;49.494;8.530;2023-05-07T11:57:49;1.52;;;1.42;;
27402;SDS011;14862;49.494;8.530;2023-05-07T12:00:15;3.53;;;1.52;;
27402;SDS011;14862;49.494;8.530;2023-05-07T12:02:41;2.05;;;1.60;;
27402;SDS011;14862;49.494;8.530;2023-05-07T12:05:07;3.22;;;1.38;;
27402;SDS011;14862;49.494;8.530;2023-05-07T12:07:35;6.50;;;1.90;;
27402;SDS011;14862;49.494;8.530;2023-05-07T12:10:05;1.75;;;1.30;;
27402;SDS011;14862;49.494;8.530;2023-05-07T12:12:30;1.67;;;1.58;;
27402;SDS011;14862;49.494;8.530;2023-05-07T12:14:55;1.60;;;1.43;;
27402;SDS011;14862;49.494;8.530;2023-05-07T12:17:21;1.77;;;1.60;;
27402;SDS011;14862;49.494;8.530;2023-05-07T12:19:46;1.55;;;1.45;;
27402;SDS011;14862;49.494;8.530;2023-05-07T12:22:11;3.25;;;1.60;;
27402;SDS011;14862;49.494;8.530;2023-05-07T12:24:44;3.50;;;2.22;;
27402;SDS011;14862;49.494;8.530;2023-05-07T12:27:09;4.15;;;1.77;;
27402;SDS011;14862;49.494;8.530;2023-05-07T12:29:35;2.75;;;1.55;;
27402;SDS011;14862;49.494;8.530;2023-05-07T12:32:00;2.33;;;1.70;;
27402;SDS011;14862;49.494;8.530;2023-05-07T12:34:25;1.70;;;1.30;;
27402;SDS011;14862;49.494;8.530;2023-05-07T12:36:50;3.35;;;1.60;;
27402;SDS011;14862;49.494;8.530;2023-05-07T12:39:16;2.53;;;1.60;;
27402;SDS011;14862;49.494;8.530;2023-05-07T12:44:19;2.72;;;1.65;;
27402;SDS011;14862;49.494;8.530;2023-05-07T12:46:44;1.80;;;1.60;;
27402;SDS011;14862;49.494;8.530;2023-05-07T12:49:11;3.40;;;1.98;;
27402;SDS011;14862;49.494;8.530;2023-05-07T12:51:37;1.70;;;1.50;;
27402;SDS011;14862;49.494;8.530;2023-05-07T12:54:02;1.55;;;1.33;;
27402;SDS011;14862;49.494;8.530;2023-05-07T12:56:30;1.60;;;1.42;;
27402;SDS011;14862;49.494;8.530;2023-05-07T12:58:57;3.50;;;1.90;;
27402;SDS011;14862;49.494;8.530;2023-05-07T13:01:22;6.43;;;1.60;;
27402;SDS011;14862;49.494;8.530;2023-05-07T13:03:53;2.85;;;2.05;;
27402;SDS011;14862;49.494;8.530;2023-05-07T13:06:18;6.00;;;1.60;;
27402;SDS011;14862;49.494;8.530;2023-05-07T13:08:43;1.50;;;1.40;;
27402;SDS011;14862;49.494;8.530;2023-05-07T13:11:09;2.72;;;1.60;;
27402;SDS011;14862;49.494;8.530;2023-05-07T13:13:35;3.05;;;1.88;;
27402;SDS011;14862;49.494;8.530;2023-05-07T13:16:01;2.20;;;1.85;;
27402;SDS011;14862;49.494;8.530;2023-05-07T13:18:27;2.70;;;1.77;;
27402;SDS011;14862;49.494;8.530;2023-05-07T13:20:53;2.00;;;1.70;;
27402;SDS011;14862;49.494;8.530;2023-05-07T13:23:18;4.32;;;1.73;;
27402;SDS011;14862;49.494;8.530;2023-05-07T13:25:43;1.30;;;1.20;;
27402;SDS011;14862;49.494;8.530;2023-05-07T13:28:08;3.00;;;1.60;;
27402;SDS011;14862;49.494;8.530;2023-05-07T13:30:34;2.42;;;1.48;;
27402;SDS011;14862;49.494;8.530;2023-05-07T13:33:00;1.50;;;1.40;;
27402;SDS011;14862;49.494;8.530;2023-05-07T13:35:25;2.88;;;1.23;;
27402;SDS011;14862;49.494;8.530;2023-05-07T13:37:51;1.65;;;1.20;;
27402;SDS011;14862;49.494;8.530;2023-05-07T13:40:17;3.20;;;1.42;;
27402;SDS011;14862;49.494;8.530;2023-05-07T13:42:42;1.77;;;1.30;;
27402;SDS011;14862;49.494;8.530;2023-05-07T13:45:08;2.40;;;1.30;;
27402;SDS011;14862;49.494;8.530;2023-05-07T13:47:34;2.22;;;1.52;;
27402;SDS011;14862;49.494;8.530;2023-05-07T13:49:59;2.63;;;1.38;;
27402;SDS011;14862;49.494;8.530;2023-05-07T13:52:24;1.75;;;1.60;;
27402;SDS011;14862;49.494;8.530;2023-05-07T13:54:50;3.05;;;1.65;;
27402;SDS011;14862;49.494;8.530;2023-05-07T13:57:17;2.20;;;1.52;;
27402;SDS011;14862;49.494;8.530;2023-05-07T13:59:42;3.45;;;1.50;;
27402;SDS011;14862;49.494;8.530;2023-05-07T14:02:07;2.97;;;1.92;;
27402;SDS011;14862;49.494;8.530;2023-05-07T14:04:34;3.95;;;1.88;;
27402;SDS011;14862;49.494;8.530;2023-05-07T14:06:59;1.98;;;1.77;;
27402;SDS011;14862;49.494;8.530;2023-05-07T14:09:25;3.50;;;1.83;;
27402;SDS011;14862;49.494;8.530;2023-05-07T14:11:51;4.80;;;2.67;;
27402;SDS011;14862;49.494;8.530;2023-05-07T14:14:17;10.20;;;3.30;;
27402;SDS011;14862;49.494;8.530;2023-05-07T14:16:42;11.65;;;2.95;;
27402;SDS011;14862;49.494;8.530;2023-05-07T14:19:07;7.85;;;2.40;;
27402;SDS011;14862;49.494;8.530;2023-05-07T14:21:33;8.10;;;2.60;;
27402;SDS011;14862;49.494;8.530;2023-05-07T14:23:58;7.00;;;4.10;;
27402;SDS011;14862;49.494;8.530;2023-05-07T14:26:25;6.82;;;3.78;;
27402;SDS011;14862;49.494;8.530;2023-05-07T14:28:51;9.50;;;5.13;;
27402;SDS011;14862;49.494;8.530;2023-05-07T14:31:17;7.30;;;5.72;;
27402;SDS011;14862;49.494;8.530;2023-05-07T14:33:42;8.80;;;6.35;;
27402;SDS011;14862;49.494;8.530;2023-05-07T14:36:07;9.88;;;7.47;;
27402;SDS011;14862;49.494;8.530;2023-05-07T14:38:33;15.23;;;8.40;;
27402;SDS011;14862;49.494;8.530;2023-05-07T14:40:58;14.73;;;9.18;;
27402;SDS011;14862;49.494;8.530;2023-05-07T14:43:23;14.40;;;9.10;;
27402;SDS011;14862;49.494;8.530;2023-05-07T14:45:48;14.45;;;9.27;;
27402;SDS011;14862;49.494;8.530;2023-05-07T14:48:14;12.23;;;8.48;;
27402;SDS011;14862;49.494;8.530;2023-05-07T14:50:40;18.20;;;9.80;;
27402;SDS011;14862;49.494;8.530;2023-05-07T14:53:06;12.02;;;8.32;;
27402;SDS011;14862;49.494;8.530;2023-05-07T14:55:31;14.60;;;8.20;;
27402;SDS011;14862;49.494;8.530;2023-05-07T14:57:56;15.87;;;8.07;;
27402;SDS011;14862;49.494;8.530;2023-05-07T15:00:21;8.93;;;7.73;;